sensor_id;sensor_type;location;lat;lon;timestamp;pressure;altitude;pressure_sealevel;temperature;humidity
13235;BME280;6683;48.506;9.050;2024-01-27T00:00:30;99831.31;;;6.37;71.46
13235;BME280;6683;48.506;9.050;2024-01-27T00:03:32;99832.66;;;6.31;71.06
13235;BME280;6683;48.506;9.050;2024-01-27T00:06:34;99842.78;;;6.25;71.43
13235;BME280;6683;48.506;9.050;2024-01-27T00:09:36;99839.66;;;6.20;71.37
13235;BME280;6683;48.506;9.050;2024-01-27T00:12:38;99840.84;;;6.16;71.49
13235;BME280;6683;48.506;9.050;2024-01-27T00:15:42;99838.50;;;6.13;71.99
13235;BME280;6683;48.506;9.050;2024-01-27T00:18:44;99841.47;;;6.08;70.93
13235;BME280;6683;48.506;9.050;2024-01-27T00:21:46;99845.41;;;6.03;71.35
13235;BME280;6683;48.506;9.050;2024-01-27T00:24:48;99844.91;;;5.98;71.60
13235;BME280;6683;48.506;9.050;2024-01-27T00:27:50;99855.72;;;5.93;71.57
13235;BME280;6683;48.506;9.050;2024-01-27T00:30:53;99865.75;;;5.88;71.47
13235;BME280;6683;48.506;9.050;2024-01-27T00:33:55;99865.22;;;5.83;71.58
13235;BME280;6683;48.506;9.050;2024-01-27T00:36:57;99866.41;;;5.79;71.71
13235;BME280;6683;48.506;9.050;2024-01-27T00:39:59;99864.97;;;5.75;71.51
13235;BME280;6683;48.506;9.050;2024-01-27T00:43:02;99866.22;;;5.69;71.42
13235;BME280;6683;48.506;9.050;2024-01-27T00:46:06;99864.91;;;5.64;71.31
13235;BME280;6683;48.506;9.050;2024-01-27T00:49:08;99868.72;;;5.60;71.11
13235;BME280;6683;48.506;9.050;2024-01-27T00:52:10;99878.59;;;5.56;71.45
13235;BME280;6683;48.506;9.050;2024-01-27T00:55:12;99886.06;;;5.50;71.61
13235;BME280;6683;48.506;9.050;2024-01-27T00:58:14;99879.50;;;5.44;71.33
13235;BME280;6683;48.506;9.050;2024-01-27T01:01:17;99884.34;;;5.38;71.65
13235;BME280;6683;48.506;9.050;2024-01-27T01:04:19;99884.91;;;5.30;71.11
13235;BME280;6683;48.506;9.050;2024-01-27T01:07:21;99884.63;;;5.22;70.58
13235;BME280;6683;48.506;9.050;2024-01-27T01:10:23;99885.91;;;5.17;71.72
13235;BME280;6683;48.506;9.050;2024-01-27T01:13:26;99889.72;;;5.13;71.21
13235;BME280;6683;48.506;9.050;2024-01-27T01:16:29;99883.84;;;5.09;71.64
13235;BME280;6683;48.506;9.050;2024-01-27T01:19:31;99904.16;;;5.06;71.22
13235;BME280;6683;48.506;9.050;2024-01-27T01:22:33;99902.84;;;5.00;71.58
13235;BME280;6683;48.506;9.050;2024-01-27T01:25:35;99904.94;;;4.95;71.65
13235;BME280;6683;48.506;9.050;2024-01-27T01:28:37;99911.56;;;4.88;71.08
13235;BME280;6683;48.506;9.050;2024-01-27T01:31:43;99902.47;;;4.81;70.98
13235;BME280;6683;48.506;9.050;2024-01-27T01:34:47;99895.78;;;4.77;71.70
13235;BME280;6683;48.506;9.050;2024-01-27T01:37:49;99903.03;;;4.73;71.64
13235;BME280;6683;48.506;9.050;2024-01-27T01:40:51;99905.97;;;4.69;71.74
13235;BME280;6683;48.506;9.050;2024-01-27T01:43:53;99907.84;;;4.67;71.17
13235;BME280;6683;48.506;9.050;2024-01-27T01:46:57;99908.88;;;4.64;71.38
13235;BME280;6683;48.506;9.050;2024-01-27T01:50:00;99900.50;;;4.59;71.84
13235;BME280;6683;48.506;9.050;2024-01-27T01:53:02;99902.63;;;4.54;71.11
13235;BME280;6683;48.506;9.050;2024-01-27T01:56:06;99896.03;;;4.49;71.06
13235;BME280;6683;48.506;9.050;2024-01-27T01:59:09;99906.72;;;4.46;71.69
13235;BME280;6683;48.506;9.050;2024-01-27T02:02:12;99909.44;;;4.44;71.67
13235;BME280;6683;48.506;9.050;2024-01-27T02:05:15;99915.59;;;4.43;71.85
13235;BME280;6683;48.506;9.050;2024-01-27T02:08:17;99925.53;;;4.38;70.90
13235;BME280;6683;48.506;9.050;2024-01-27T02:11:20;99930.25;;;4.33;71.29
13235;BME280;6683;48.506;9.050;2024-01-27T02:14:22;99933.28;;;4.27;71.34
13235;BME280;6683;48.506;9.050;2024-01-27T02:17:27;99920.53;;;4.23;71.54
13235;BME280;6683;48.506;9.050;2024-01-27T02:20:29;99927.03;;;4.17;71.10
13235;BME280;6683;48.506;9.050;2024-01-27T02:23:31;99933.38;;;4.13;71.06
13235;BME280;6683;48.506;9.050;2024-01-27T02:26:35;99937.22;;;4.07;70.74
13235;BME280;6683;48.506;9.050;2024-01-27T02:29:37;99944.44;;;4.04;71.46
13235;BME280;6683;48.506;9.050;2024-01-27T02:32:39;99958.56;;;4.01;71.26
13235;BME280;6683;48.506;9.050;2024-01-27T02:35:41;99946.63;;;3.97;71.68
13235;BME280;6683;48.506;9.050;2024-01-27T02:38:44;99954.78;;;3.93;71.50
13235;BME280;6683;48.506;9.050;2024-01-27T02:41:48;99964.72;;;3.88;71.54
13235;BME280;6683;48.506;9.050;2024-01-27T02:44:50;99964.91;;;3.85;71.12
13235;BME280;6683;48.506;9.050;2024-01-27T02:47:52;99971.16;;;3.82;71.12
13235;BME280;6683;48.506;9.050;2024-01-27T02:50:54;99981.59;;;3.82;71.19
13235;BME280;6683;48.506;9.050;2024-01-27T02:53:56;99984.31;;;3.81;71.70
13235;BME280;6683;48.506;9.050;2024-01-27T02:57:00;99975.63;;;3.80;71.35
13235;BME280;6683;48.506;9.050;2024-01-27T03:00:02;99978.25;;;3.80;71.47
13235;BME280;6683;48.506;9.050;2024-01-27T03:03:05;99972.28;;;3.78;71.87
13235;BME280;6683;48.506;9.050;2024-01-27T03:06:07;99985.34;;;3.78;71.93
13235;BME280;6683;48.506;9.050;2024-01-27T03:09:09;99988.06;;;3.77;71.87
13235;BME280;6683;48.506;9.050;2024-01-27T03:12:14;99984.84;;;3.73;71.67
13235;BME280;6683;48.506;9.050;2024-01-27T03:15:16;99984.00;;;3.73;71.60
13235;BME280;6683;48.506;9.050;2024-01-27T03:18:18;99984.91;;;3.72;71.30
13235;BME280;6683;48.506;9.050;2024-01-27T03:21:20;99982.50;;;3.69;71.53
13235;BME280;6683;48.506;9.050;2024-01-27T03:24:22;99989.50;;;3.68;71.54
13235;BME280;6683;48.506;9.050;2024-01-27T03:27:26;99996.59;;;3.66;71.33
13235;BME280;6683;48.506;9.050;2024-01-27T03:30:29;99992.28;;;3.65;71.26
13235;BME280;6683;48.506;9.050;2024-01-27T03:33:31;99996.78;;;3.63;71.74
13235;BME280;6683;48.506;9.050;2024-01-27T03:36:33;100007.44;;;3.60;71.81
13235;BME280;6683;48.506;9.050;2024-01-27T03:39:35;100012.84;;;3.57;71.70
13235;BME280;6683;48.506;9.050;2024-01-27T03:42:38;100011.47;;;3.52;70.78
13235;BME280;6683;48.506;9.050;2024-01-27T03:45:40;100027.53;;;3.46;71.26
13235;BME280;6683;48.506;9.050;2024-01-27T03:48:42;100022.69;;;3.40;71.02
13235;BME280;6683;48.506;9.050;2024-01-27T03:51:44;100022.88;;;3.37;71.21
13235;BME280;6683;48.506;9.050;2024-01-27T03:54:46;100029.13;;;3.34;72.09
13235;BME280;6683;48.506;9.050;2024-01-27T03:57:50;100030.06;;;3.33;71.60
13235;BME280;6683;48.506;9.050;2024-01-27T04:00:52;100035.28;;;3.33;71.79
13235;BME280;6683;48.506;9.050;2024-01-27T04:03:54;100046.66;;;3.32;71.62
13235;BME280;6683;48.506;9.050;2024-01-27T04:06:56;100050.09;;;3.33;71.89
13235;BME280;6683;48.506;9.050;2024-01-27T04:09:58;100046.66;;;3.32;71.89
13235;BME280;6683;48.506;9.050;2024-01-27T04:13:01;100038.94;;;3.31;71.96
13235;BME280;6683;48.506;9.050;2024-01-27T04:16:04;100038.81;;;3.32;71.78
13235;BME280;6683;48.506;9.050;2024-01-27T04:19:07;100033.59;;;3.32;71.94
13235;BME280;6683;48.506;9.050;2024-01-27T04:22:09;100039.66;;;3.33;71.24
13235;BME280;6683;48.506;9.050;2024-01-27T04:25:11;100041.63;;;3.29;71.68
13235;BME280;6683;48.506;9.050;2024-01-27T04:28:15;100046.00;;;3.29;71.74
13235;BME280;6683;48.506;9.050;2024-01-27T04:31:17;100044.31;;;3.28;71.56
13235;BME280;6683;48.506;9.050;2024-01-27T04:34:19;100048.00;;;3.25;71.19
13235;BME280;6683;48.506;9.050;2024-01-27T04:37:21;100050.03;;;3.20;71.17
13235;BME280;6683;48.506;9.050;2024-01-27T04:40:23;100046.78;;;3.16;71.36
13235;BME280;6683;48.506;9.050;2024-01-27T04:43:26;100058.25;;;3.14;71.26
13235;BME280;6683;48.506;9.050;2024-01-27T04:46:29;100057.59;;;3.10;71.75
13235;BME280;6683;48.506;9.050;2024-01-27T04:49:31;100052.56;;;3.07;71.21
13235;BME280;6683;48.506;9.050;2024-01-27T04:52:33;100047.44;;;3.06;71.11
13235;BME280;6683;48.506;9.050;2024-01-27T04:55:36;100046.69;;;3.04;71.65
13235;BME280;6683;48.506;9.050;2024-01-27T04:58:40;100040.75;;;3.02;71.88
13235;BME280;6683;48.506;9.050;2024-01-27T05:01:44;100045.28;;;2.98;71.20
13235;BME280;6683;48.506;9.050;2024-01-27T05:04:46;100040.28;;;2.95;71.36
13235;BME280;6683;48.506;9.050;2024-01-27T05:07:48;100041.28;;;2.93;71.17
13235;BME280;6683;48.506;9.050;2024-01-27T05:10:51;100037.94;;;2.91;71.45
13235;BME280;6683;48.506;9.050;2024-01-27T05:13:54;100044.09;;;2.90;71.07
13235;BME280;6683;48.506;9.050;2024-01-27T05:16:56;100039.81;;;2.89;71.18
13235;BME280;6683;48.506;9.050;2024-01-27T05:19:58;100038.94;;;2.88;71.26
13235;BME280;6683;48.506;9.050;2024-01-27T05:23:00;100044.28;;;2.87;71.26
13235;BME280;6683;48.506;9.050;2024-01-27T05:26:05;100045.28;;;2.84;71.74
13235;BME280;6683;48.506;9.050;2024-01-27T05:29:08;100045.28;;;2.84;71.71
13235;BME280;6683;48.506;9.050;2024-01-27T05:32:10;100047.06;;;2.84;71.82
13235;BME280;6683;48.506;9.050;2024-01-27T05:35:12;100054.81;;;2.85;71.33
13235;BME280;6683;48.506;9.050;2024-01-27T05:38:14;100053.13;;;2.84;71.68
13235;BME280;6683;48.506;9.050;2024-01-27T05:41:16;100045.28;;;2.84;71.41
13235;BME280;6683;48.506;9.050;2024-01-27T05:44:20;100046.88;;;2.87;71.55
13235;BME280;6683;48.506;9.050;2024-01-27T05:47:22;100043.25;;;2.89;71.76
13235;BME280;6683;48.506;9.050;2024-01-27T05:50:24;100052.75;;;2.90;72.12
13235;BME280;6683;48.506;9.050;2024-01-27T05:53:27;100056.19;;;2.91;71.53
13235;BME280;6683;48.506;9.050;2024-01-27T05:56:29;100042.97;;;2.94;71.74
13235;BME280;6683;48.506;9.050;2024-01-27T05:59:32;100048.19;;;2.94;71.66
13235;BME280;6683;48.506;9.050;2024-01-27T06:02:34;100042.03;;;2.95;71.41
13235;BME280;6683;48.506;9.050;2024-01-27T06:05:37;100045.47;;;2.95;71.82
13235;BME280;6683;48.506;9.050;2024-01-27T06:08:39;100051.53;;;2.96;71.51
13235;BME280;6683;48.506;9.050;2024-01-27T06:11:41;100053.31;;;2.95;71.63
13235;BME280;6683;48.506;9.050;2024-01-27T06:14:44;100068.00;;;2.96;71.98
13235;BME280;6683;48.506;9.050;2024-01-27T06:17:47;100062.78;;;2.96;71.81
13235;BME280;6683;48.506;9.050;2024-01-27T06:20:49;100051.44;;;2.97;72.06
13235;BME280;6683;48.506;9.050;2024-01-27T06:23:52;100056.56;;;2.99;71.97
13235;BME280;6683;48.506;9.050;2024-01-27T06:26:54;100053.84;;;3.00;72.09
13235;BME280;6683;48.506;9.050;2024-01-27T06:29:58;100044.25;;;3.01;72.36
13235;BME280;6683;48.506;9.050;2024-01-27T06:33:00;100059.75;;;3.04;71.84
13235;BME280;6683;48.506;9.050;2024-01-27T06:36:02;100070.81;;;3.07;72.13
13235;BME280;6683;48.506;9.050;2024-01-27T06:39:04;100075.00;;;3.10;72.21
13235;BME280;6683;48.506;9.050;2024-01-27T06:42:08;100077.53;;;3.11;71.88
13235;BME280;6683;48.506;9.050;2024-01-27T06:45:12;100087.13;;;3.11;71.82
13235;BME280;6683;48.506;9.050;2024-01-27T06:48:14;100090.41;;;3.14;71.78
13235;BME280;6683;48.506;9.050;2024-01-27T06:51:16;100088.53;;;3.16;72.06
13235;BME280;6683;48.506;9.050;2024-01-27T06:54:18;100090.13;;;3.19;72.00
13235;BME280;6683;48.506;9.050;2024-01-27T06:57:22;100084.91;;;3.19;71.91
13235;BME280;6683;48.506;9.050;2024-01-27T07:00:25;100090.94;;;3.19;71.76
13235;BME280;6683;48.506;9.050;2024-01-27T07:03:28;100094.38;;;3.20;71.94
13235;BME280;6683;48.506;9.050;2024-01-27T07:06:30;100103.97;;;3.19;71.68
13235;BME280;6683;48.506;9.050;2024-01-27T07:09:32;100096.16;;;3.19;71.75
13235;BME280;6683;48.506;9.050;2024-01-27T07:12:34;100096.16;;;3.19;72.13
13235;BME280;6683;48.506;9.050;2024-01-27T07:15:38;100092.63;;;3.20;72.33
13235;BME280;6683;48.506;9.050;2024-01-27T07:18:40;100095.97;;;3.22;72.58
13235;BME280;6683;48.506;9.050;2024-01-27T07:21:42;100096.63;;;3.26;72.50
13235;BME280;6683;48.506;9.050;2024-01-27T07:24:44;100095.50;;;3.30;72.42
13235;BME280;6683;48.506;9.050;2024-01-27T07:27:47;100094.56;;;3.31;72.45
13235;BME280;6683;48.506;9.050;2024-01-27T07:30:50;100092.72;;;3.33;72.16
13235;BME280;6683;48.506;9.050;2024-01-27T07:33:52;100099.53;;;3.36;72.33
13235;BME280;6683;48.506;9.050;2024-01-27T07:36:54;100100.25;;;3.38;72.57
13235;BME280;6683;48.506;9.050;2024-01-27T07:39:56;100096.69;;;3.39;72.55
13235;BME280;6683;48.506;9.050;2024-01-27T07:42:58;100105.19;;;3.42;72.75
13235;BME280;6683;48.506;9.050;2024-01-27T07:46:02;100102.38;;;3.45;72.61
13235;BME280;6683;48.506;9.050;2024-01-27T07:49:05;100098.00;;;3.46;72.34
13235;BME280;6683;48.506;9.050;2024-01-27T07:52:07;100103.22;;;3.46;72.13
13235;BME280;6683;48.506;9.050;2024-01-27T07:55:10;100106.75;;;3.45;72.52
13235;BME280;6683;48.506;9.050;2024-01-27T07:58:12;100106.75;;;3.45;72.81
13235;BME280;6683;48.506;9.050;2024-01-27T08:01:16;100105.00;;;3.45;72.78
13235;BME280;6683;48.506;9.050;2024-01-27T08:04:18;100108.47;;;3.46;72.39
13235;BME280;6683;48.506;9.050;2024-01-27T08:07:20;100103.22;;;3.46;72.67
13235;BME280;6683;48.506;9.050;2024-01-27T08:10:22;100098.00;;;3.46;72.80
13235;BME280;6683;48.506;9.050;2024-01-27T08:13:24;100104.91;;;3.47;72.24
13235;BME280;6683;48.506;9.050;2024-01-27T08:16:28;100104.91;;;3.47;72.75
13235;BME280;6683;48.506;9.050;2024-01-27T08:19:30;100121.22;;;3.50;72.73
13235;BME280;6683;48.506;9.050;2024-01-27T08:22:32;100105.56;;;3.50;73.00
13235;BME280;6683;48.506;9.050;2024-01-27T08:25:34;100100.34;;;3.50;72.82
13235;BME280;6683;48.506;9.050;2024-01-27T08:28:36;100111.81;;;3.48;72.48
13235;BME280;6683;48.506;9.050;2024-01-27T08:31:39;100107.50;;;3.47;72.35
13235;BME280;6683;48.506;9.050;2024-01-27T08:34:41;100093.72;;;3.45;72.77
13235;BME280;6683;48.506;9.050;2024-01-27T08:37:43;100087.66;;;3.44;72.76
13235;BME280;6683;48.506;9.050;2024-01-27T08:40:45;100084.41;;;3.41;72.67
13235;BME280;6683;48.506;9.050;2024-01-27T08:43:47;100090.63;;;3.38;72.44
13235;BME280;6683;48.506;9.050;2024-01-27T08:46:51;100083.56;;;3.40;73.23
13235;BME280;6683;48.506;9.050;2024-01-27T08:49:53;100088.69;;;3.42;73.07
13235;BME280;6683;48.506;9.050;2024-01-27T08:52:55;100094.66;;;3.44;73.04
13235;BME280;6683;48.506;9.050;2024-01-27T08:55:57;100101.53;;;3.45;72.84
13235;BME280;6683;48.506;9.050;2024-01-27T08:58:59;100091.03;;;3.46;72.63
13235;BME280;6683;48.506;9.050;2024-01-27T09:02:03;100085.13;;;3.43;73.00
13235;BME280;6683;48.506;9.050;2024-01-27T09:05:06;100099.13;;;3.42;72.63
13235;BME280;6683;48.506;9.050;2024-01-27T09:08:08;100100.16;;;3.39;72.93
13235;BME280;6683;48.506;9.050;2024-01-27T09:11:10;100101.00;;;3.40;72.85
13235;BME280;6683;48.506;9.050;2024-01-27T09:14:12;100092.13;;;3.42;72.83
13235;BME280;6683;48.506;9.050;2024-01-27T09:17:16;100101.53;;;3.45;73.35
13235;BME280;6683;48.506;9.050;2024-01-27T09:20:19;100110.84;;;3.49;73.09
13235;BME280;6683;48.506;9.050;2024-01-27T09:23:21;100120.19;;;3.53;73.10
13235;BME280;6683;48.506;9.050;2024-01-27T09:26:23;100107.97;;;3.53;72.44
13235;BME280;6683;48.506;9.050;2024-01-27T09:29:25;100106.31;;;3.52;72.73
13235;BME280;6683;48.506;9.050;2024-01-27T09:32:29;100121.88;;;3.54;73.31
13235;BME280;6683;48.506;9.050;2024-01-27T09:35:31;100127.84;;;3.56;72.61
13235;BME280;6683;48.506;9.050;2024-01-27T09:38:33;100124.28;;;3.57;73.20
13235;BME280;6683;48.506;9.050;2024-01-27T09:41:35;100130.25;;;3.59;73.29
13235;BME280;6683;48.506;9.050;2024-01-27T09:44:38;100130.25;;;3.59;73.23
13235;BME280;6683;48.506;9.050;2024-01-27T09:47:42;100128.41;;;3.61;73.07
13235;BME280;6683;48.506;9.050;2024-01-27T09:50:46;100126.31;;;3.66;73.60
13235;BME280;6683;48.506;9.050;2024-01-27T09:53:50;100125.28;;;3.68;73.64
13235;BME280;6683;48.506;9.050;2024-01-27T09:56:52;100124.34;;;3.69;73.20
13235;BME280;6683;48.506;9.050;2024-01-27T09:59:56;100123.25;;;3.73;73.45
13235;BME280;6683;48.506;9.050;2024-01-27T10:03:00;100121.44;;;3.74;72.92
13235;BME280;6683;48.506;9.050;2024-01-27T10:06:04;100126.28;;;3.80;73.75
13235;BME280;6683;48.506;9.050;2024-01-27T10:09:09;100132.91;;;3.85;73.43
13235;BME280;6683;48.506;9.050;2024-01-27T10:12:13;100131.13;;;3.86;73.08
13235;BME280;6683;48.506;9.050;2024-01-27T10:15:19;100130.19;;;3.87;73.70
13235;BME280;6683;48.506;9.050;2024-01-27T10:18:23;100126.56;;;3.89;73.09
13235;BME280;6683;48.506;9.050;2024-01-27T10:21:25;100130.66;;;3.93;72.86
13235;BME280;6683;48.506;9.050;2024-01-27T10:24:28;100134.75;;;3.97;73.16
13235;BME280;6683;48.506;9.050;2024-01-27T10:27:30;100129.97;;;4.04;73.81
13235;BME280;6683;48.506;9.050;2024-01-27T10:30:32;100129.97;;;4.04;72.94
13235;BME280;6683;48.506;9.050;2024-01-27T10:33:35;100126.41;;;4.05;73.33
13235;BME280;6683;48.506;9.050;2024-01-27T10:36:41;100115.13;;;4.04;73.50
13235;BME280;6683;48.506;9.050;2024-01-27T10:39:43;100109.59;;;4.09;73.76
13235;BME280;6683;48.506;9.050;2024-01-27T10:42:46;100101.47;;;4.14;73.79
13235;BME280;6683;48.506;9.050;2024-01-27T10:45:48;100100.31;;;4.18;73.54
13235;BME280;6683;48.506;9.050;2024-01-27T10:48:52;100107.22;;;4.19;73.09
13235;BME280;6683;48.506;9.050;2024-01-27T10:51:55;100094.16;;;4.19;73.33
13235;BME280;6683;48.506;9.050;2024-01-27T10:55:00;100089.56;;;4.22;73.52
13235;BME280;6683;48.506;9.050;2024-01-27T10:58:04;100079.66;;;4.27;73.60
13235;BME280;6683;48.506;9.050;2024-01-27T11:01:09;100083.09;;;4.28;73.51
13235;BME280;6683;48.506;9.050;2024-01-27T11:04:14;100085.09;;;4.37;73.57
13235;BME280;6683;48.506;9.050;2024-01-27T11:07:19;100076.84;;;4.43;73.53
13235;BME280;6683;48.506;9.050;2024-01-27T11:10:22;100059.94;;;4.48;73.71
13235;BME280;6683;48.506;9.050;2024-01-27T11:13:25;100040.91;;;4.59;73.32
13235;BME280;6683;48.506;9.050;2024-01-27T11:16:27;100034.00;;;4.70;73.32
13235;BME280;6683;48.506;9.050;2024-01-27T11:19:33;100044.47;;;4.83;73.59
13235;BME280;6683;48.506;9.050;2024-01-27T11:22:35;100049.88;;;4.93;73.08
13235;BME280;6683;48.506;9.050;2024-01-27T11:25:37;100050.53;;;4.96;73.33
13235;BME280;6683;48.506;9.050;2024-01-27T11:28:40;100040.81;;;4.98;73.17
13235;BME280;6683;48.506;9.050;2024-01-27T11:31:44;100040.50;;;5.03;72.89
13235;BME280;6683;48.506;9.050;2024-01-27T11:34:48;100029.19;;;5.02;73.11
13235;BME280;6683;48.506;9.050;2024-01-27T11:37:50;100035.44;;;5.00;73.10
13235;BME280;6683;48.506;9.050;2024-01-27T11:40:52;100035.66;;;4.97;72.97
13235;BME280;6683;48.506;9.050;2024-01-27T11:43:55;100030.22;;;5.00;73.59
13235;BME280;6683;48.506;9.050;2024-01-27T11:46:57;100039.41;;;5.05;73.39
13235;BME280;6683;48.506;9.050;2024-01-27T11:50:01;100046.03;;;5.11;73.94
13235;BME280;6683;48.506;9.050;2024-01-27T11:53:04;100043.69;;;5.19;73.68
13235;BME280;6683;48.506;9.050;2024-01-27T11:56:10;100031.63;;;5.29;73.55
13235;BME280;6683;48.506;9.050;2024-01-27T11:59:12;100046.06;;;5.34;73.49
13235;BME280;6683;48.506;9.050;2024-01-27T12:02:14;100049.31;;;5.38;73.12
13235;BME280;6683;48.506;9.050;2024-01-27T12:05:18;100045.88;;;5.37;73.37
13235;BME280;6683;48.506;9.050;2024-01-27T12:08:20;100036.84;;;5.41;73.45
13235;BME280;6683;48.506;9.050;2024-01-27T12:11:22;100027.94;;;5.44;73.18
13235;BME280;6683;48.506;9.050;2024-01-27T12:14:24;100021.84;;;5.43;73.56
13235;BME280;6683;48.506;9.050;2024-01-27T12:17:26;100018.50;;;5.41;73.12
13235;BME280;6683;48.506;9.050;2024-01-27T12:20:30;100016.94;;;5.39;73.75
13235;BME280;6683;48.506;9.050;2024-01-27T12:23:32;100009.81;;;5.41;73.94
13235;BME280;6683;48.506;9.050;2024-01-27T12:26:35;99998.28;;;5.43;73.83
13235;BME280;6683;48.506;9.050;2024-01-27T12:29:41;99992.00;;;5.46;73.91
13235;BME280;6683;48.506;9.050;2024-01-27T12:32:43;99993.44;;;5.50;74.05
13235;BME280;6683;48.506;9.050;2024-01-27T12:35:46;99995.75;;;5.54;73.84
13235;BME280;6683;48.506;9.050;2024-01-27T12:38:54;100004.19;;;5.58;73.62
13235;BME280;6683;48.506;9.050;2024-01-27T12:41:56;99997.66;;;5.63;73.91
13235;BME280;6683;48.506;9.050;2024-01-27T12:44:58;99989.16;;;5.73;74.46
13235;BME280;6683;48.506;9.050;2024-01-27T12:48:00;99978.22;;;5.79;73.48
13235;BME280;6683;48.506;9.050;2024-01-27T12:51:04;99971.72;;;5.84;73.86
13235;BME280;6683;48.506;9.050;2024-01-27T12:54:06;99967.69;;;5.91;73.89
13235;BME280;6683;48.506;9.050;2024-01-27T12:57:08;99959.50;;;5.96;73.94
13235;BME280;6683;48.506;9.050;2024-01-27T13:00:12;99963.34;;;6.03;73.87
13235;BME280;6683;48.506;9.050;2024-01-27T13:03:15;99952.88;;;6.14;74.31
13235;BME280;6683;48.506;9.050;2024-01-27T13:06:19;99957.19;;;6.26;74.24
13235;BME280;6683;48.506;9.050;2024-01-27T13:09:23;99957.94;;;6.39;74.08
13235;BME280;6683;48.506;9.050;2024-01-27T13:12:25;99957.25;;;6.48;74.08
13235;BME280;6683;48.506;9.050;2024-01-27T13:15:27;99961.75;;;6.57;74.27
13235;BME280;6683;48.506;9.050;2024-01-27T13:18:29;99949.84;;;6.64;74.08
13235;BME280;6683;48.506;9.050;2024-01-27T13:21:33;99955.34;;;6.72;74.02
13235;BME280;6683;48.506;9.050;2024-01-27T13:24:35;99945.19;;;6.79;73.87
13235;BME280;6683;48.506;9.050;2024-01-27T13:27:37;99943.88;;;6.84;73.71
13235;BME280;6683;48.506;9.050;2024-01-27T13:30:39;99936.47;;;6.89;73.83
13235;BME280;6683;48.506;9.050;2024-01-27T13:33:42;99931.00;;;6.92;73.79
13235;BME280;6683;48.506;9.050;2024-01-27T13:36:46;99923.00;;;6.94;73.19
13235;BME280;6683;48.506;9.050;2024-01-27T13:39:48;99926.47;;;6.94;73.59
13235;BME280;6683;48.506;9.050;2024-01-27T13:42:50;99922.16;;;6.93;73.37
13235;BME280;6683;48.506;9.050;2024-01-27T13:45:53;99919.66;;;6.92;73.35
13235;BME280;6683;48.506;9.050;2024-01-27T13:48:56;99918.59;;;6.94;73.64
13235;BME280;6683;48.506;9.050;2024-01-27T13:51:59;99922.75;;;6.97;73.62
13235;BME280;6683;48.506;9.050;2024-01-27T13:55:02;99926.78;;;7.01;73.43
13235;BME280;6683;48.506;9.050;2024-01-27T13:58:04;99914.41;;;7.03;73.88
13235;BME280;6683;48.506;9.050;2024-01-27T14:01:07;99920.25;;;7.06;73.57
13235;BME280;6683;48.506;9.050;2024-01-27T14:04:09;99918.19;;;7.10;73.38
13235;BME280;6683;48.506;9.050;2024-01-27T14:07:12;99917.00;;;7.14;73.59
13235;BME280;6683;48.506;9.050;2024-01-27T14:10:14;99911.38;;;7.18;73.45
13235;BME280;6683;48.506;9.050;2024-01-27T14:13:16;99918.03;;;7.22;73.42
13235;BME280;6683;48.506;9.050;2024-01-27T14:16:19;99917.81;;;7.25;73.50
13235;BME280;6683;48.506;9.050;2024-01-27T14:19:21;99908.81;;;7.28;73.44
13235;BME280;6683;48.506;9.050;2024-01-27T14:22:26;99911.00;;;7.34;73.45
13235;BME280;6683;48.506;9.050;2024-01-27T14:25:30;99907.97;;;7.39;73.32
13235;BME280;6683;48.506;9.050;2024-01-27T14:28:32;99901.50;;;7.43;73.06
13235;BME280;6683;48.506;9.050;2024-01-27T14:31:34;99893.38;;;7.46;73.25
13235;BME280;6683;48.506;9.050;2024-01-27T14:34:36;99896.72;;;7.48;73.07
13235;BME280;6683;48.506;9.050;2024-01-27T14:37:40;99903.53;;;7.50;73.16
13235;BME280;6683;48.506;9.050;2024-01-27T14:40:43;99899.81;;;7.53;73.17
13235;BME280;6683;48.506;9.050;2024-01-27T14:43:45;99898.59;;;7.57;73.14
13235;BME280;6683;48.506;9.050;2024-01-27T14:46:50;99901.94;;;7.59;73.28
13235;BME280;6683;48.506;9.050;2024-01-27T14:49:52;99907.91;;;7.61;73.10
13235;BME280;6683;48.506;9.050;2024-01-27T14:52:56;99900.72;;;7.63;73.22
13235;BME280;6683;48.506;9.050;2024-01-27T14:55:59;99891.75;;;7.65;73.22
13235;BME280;6683;48.506;9.050;2024-01-27T14:59:01;99882.75;;;7.68;73.24
13235;BME280;6683;48.506;9.050;2024-01-27T15:02:03;99880.84;;;7.70;73.22
13235;BME280;6683;48.506;9.050;2024-01-27T15:05:06;99882.38;;;7.72;73.19
13235;BME280;6683;48.506;9.050;2024-01-27T15:08:10;99880.47;;;7.74;73.28
13235;BME280;6683;48.506;9.050;2024-01-27T15:11:13;99874.97;;;7.77;73.34
13235;BME280;6683;48.506;9.050;2024-01-27T15:14:15;99880.78;;;7.81;73.25
13235;BME280;6683;48.506;9.050;2024-01-27T15:17:17;99884.13;;;7.83;73.25
13235;BME280;6683;48.506;9.050;2024-01-27T15:20:20;99882.19;;;7.85;73.28
13235;BME280;6683;48.506;9.050;2024-01-27T15:23:23;99866.44;;;7.85;73.25
13235;BME280;6683;48.506;9.050;2024-01-27T15:26:28;99858.41;;;7.86;73.15
13235;BME280;6683;48.506;9.050;2024-01-27T15:29:30;99854.13;;;7.85;73.12
13235;BME280;6683;48.506;9.050;2024-01-27T15:32:32;99856.75;;;7.85;73.14
13235;BME280;6683;48.506;9.050;2024-01-27T15:35:34;99854.13;;;7.85;72.94
13235;BME280;6683;48.506;9.050;2024-01-27T15:38:39;99862.97;;;7.84;73.06
13235;BME280;6683;48.506;9.050;2024-01-27T15:41:42;99856.03;;;7.83;72.88
13235;BME280;6683;48.506;9.050;2024-01-27T15:44:44;99856.28;;;7.80;72.86
13235;BME280;6683;48.506;9.050;2024-01-27T15:47:46;99851.16;;;7.79;72.87
13235;BME280;6683;48.506;9.050;2024-01-27T15:50:48;99853.22;;;7.75;72.74
13235;BME280;6683;48.506;9.050;2024-01-27T15:53:51;99855.25;;;7.72;72.86
13235;BME280;6683;48.506;9.050;2024-01-27T15:56:53;99850.28;;;7.69;72.82
13235;BME280;6683;48.506;9.050;2024-01-27T15:59:56;99846.47;;;7.62;72.76
13235;BME280;6683;48.506;9.050;2024-01-27T16:02:58;99851.31;;;7.57;72.73
13235;BME280;6683;48.506;9.050;2024-01-27T16:06:00;99856.78;;;7.54;72.78
13235;BME280;6683;48.506;9.050;2024-01-27T16:09:04;99851.91;;;7.49;72.92
13235;BME280;6683;48.506;9.050;2024-01-27T16:12:07;99852.19;;;7.46;72.74
13235;BME280;6683;48.506;9.050;2024-01-27T16:15:09;99861.38;;;7.41;72.47
13235;BME280;6683;48.506;9.050;2024-01-27T16:18:12;99873.59;;;7.31;72.10
13235;BME280;6683;48.506;9.050;2024-01-27T16:21:15;99870.19;;;7.19;71.96
13235;BME280;6683;48.506;9.050;2024-01-27T16:24:19;99868.56;;;7.07;72.07